createdAt,value
2023-04-07T02:49:54.045Z,50.875767
2023-04-07T02:50:54.036Z,50.875118
2023-04-07T02:51:54.000Z,50.875633
2023-04-07T02:52:53.975Z,50.875515
2023-04-07T02:53:54.246Z,50.875675
2023-04-07T02:54:53.973Z,50.875462
2023-04-07T02:55:53.975Z,50.875725
2023-04-07T02:56:53.960Z,50.875984
2023-04-07T02:57:53.940Z,50.876678
2023-04-07T02:58:53.940Z,50.875397
2023-04-07T02:59:53.911Z,50.875305
2023-04-07T03:00:53.921Z,50.875278
2023-04-07T03:01:54.109Z,50.875278
2023-04-07T03:02:54.083Z,50.875996
2023-04-07T03:03:54.139Z,50.875416
2023-04-07T03:04:53.896Z,50.875214
2023-04-07T03:05:53.874Z,50.875465
2023-04-07T03:06:53.878Z,50.875252
2023-04-07T03:07:53.868Z,50.875362
2023-04-07T03:08:53.859Z,50.875439
2023-04-07T03:09:53.878Z,50.875412
2023-04-07T03:10:53.856Z,50.875385
2023-04-07T03:11:53.821Z,50.875252
2023-04-07T03:12:53.800Z,50.875244
2023-04-07T03:13:53.989Z,50.875317
2023-04-07T03:14:53.813Z,50.875355
2023-04-07T03:15:53.793Z,50.875336
2023-04-07T03:16:53.837Z,50.875393
2023-04-07T03:17:53.809Z,50.875362
2023-04-07T03:18:53.763Z,50.875500
2023-04-07T03:19:53.750Z,50.875389
2023-04-07T03:20:53.746Z,50.875336
2023-04-07T03:21:53.775Z,50.875309
2023-04-07T03:22:53.708Z,50.875313
2023-04-07T03:23:54.005Z,50.875320
2023-04-07T03:24:53.722Z,50.875401
2023-04-07T03:25:53.684Z,50.875134
2023-04-07T03:26:53.689Z,50.875149
2023-04-07T03:27:53.671Z,50.875347
2023-04-07T03:28:53.654Z,50.875305
2023-04-07T03:29:53.668Z,50.875320
2023-04-07T03:30:53.657Z,50.875374
2023-04-07T03:31:53.691Z,50.875225
2023-04-07T03:32:53.716Z,50.875267
2023-04-07T03:33:53.926Z,50.875278
2023-04-07T03:34:53.611Z,50.875328
2023-04-07T03:35:53.604Z,50.875332
2023-04-07T03:36:53.609Z,50.875309
2023-04-07T03:37:53.567Z,50.875431
2023-04-07T03:38:53.573Z,50.875244
2023-04-07T03:39:53.554Z,50.875313
2023-04-07T03:40:53.548Z,50.875504
2023-04-07T03:41:53.549Z,50.875492
2023-04-07T03:42:53.538Z,50.875473
2023-04-07T03:43:53.722Z,50.875404
2023-04-07T03:44:53.488Z,50.875435
2023-04-07T03:45:53.512Z,50.875431
2023-04-07T03:46:53.532Z,50.875370
2023-04-07T03:47:53.545Z,50.875439
2023-04-07T03:48:53.468Z,50.875328
2023-04-07T03:49:53.457Z,50.875454
2023-04-07T03:50:53.448Z,50.875423
2023-04-07T03:51:53.454Z,50.875336
2023-04-07T03:52:53.412Z,50.875267
2023-04-07T03:53:53.635Z,50.875370
2023-04-07T03:54:53.423Z,50.875481
2023-04-07T03:55:53.398Z,50.875336
2023-04-07T03:56:53.440Z,50.875462
2023-04-07T03:57:53.363Z,50.875332
2023-04-07T03:58:53.404Z,50.875553
2023-04-07T03:59:53.365Z,50.875473
2023-04-07T04:00:53.366Z,50.875336
2023-04-07T04:01:53.420Z,50.875324
2023-04-07T04:02:53.390Z,50.875412
2023-04-07T04:03:53.611Z,50.875366
2023-04-07T04:04:53.484Z,50.875393
2023-04-07T04:05:53.304Z,50.875393
2023-04-07T04:06:53.313Z,50.875439
2023-04-07T04:07:53.261Z,50.875336
2023-04-07T04:08:53.259Z,50.875343
2023-04-07T04:09:53.235Z,50.875343
2023-04-07T04:10:53.254Z,50.875351
2023-04-07T04:11:53.258Z,50.875454
2023-04-07T04:12:53.239Z,50.875263
2023-04-07T04:13:53.395Z,50.875088
2023-04-07T04:14:53.201Z,50.874981
2023-04-07T04:15:53.243Z,50.874958
2023-04-07T04:16:53.210Z,50.874992
2023-04-07T04:17:53.234Z,50.875164
2023-04-07T04:18:53.185Z,50.875145
2023-04-07T04:19:53.164Z,50.875378
2023-04-07T04:20:53.166Z,50.875694
2023-04-07T04:21:53.149Z,50.876087
2023-04-07T04:22:53.166Z,50.876472
2023-04-07T04:23:53.471Z,50.875862
2023-04-07T04:24:53.112Z,50.875191
2023-04-07T04:25:53.084Z,50.875103
2023-04-07T04:26:53.098Z,50.875225
2023-04-07T04:27:53.099Z,50.875317
2023-04-07T04:28:53.065Z,50.875328
2023-04-07T04:29:53.072Z,50.875446
2023-04-07T04:30:53.057Z,50.875443
2023-04-07T04:31:53.035Z,50.875408
2023-04-07T04:32:53.094Z,50.875416
2023-04-07T04:33:53.356Z,50.875347
2023-04-07T04:34:53.012Z,50.875134
2023-04-07T04:35:53.015Z,50.875103
2023-04-07T04:36:53.016Z,50.875164
2023-04-07T04:37:52.997Z,50.874622
2023-04-07T04:38:52.960Z,50.875389
2023-04-07T04:39:52.973Z,50.875362
2023-04-07T04:40:52.940Z,50.875404
2023-04-07T04:41:52.923Z,50.875401
2023-04-07T04:42:52.977Z,50.875469
2023-04-07T04:43:52.936Z,50.875423
2023-04-07T04:44:52.911Z,50.875622
2023-04-07T04:45:52.887Z,50.875385
2023-04-07T04:46:52.925Z,50.875469
2023-04-07T04:47:52.957Z,50.875385
2023-04-07T04:48:52.918Z,50.875557
2023-04-07T04:49:52.863Z,50.875599
2023-04-07T04:50:52.857Z,50.875687
2023-04-07T04:51:52.860Z,50.875633
2023-04-07T04:52:52.883Z,50.875576
2023-04-07T04:53:53.002Z,50.875652
2023-04-07T04:54:52.800Z,50.875610
2023-04-07T04:55:52.800Z,50.875542
2023-04-07T04:56:52.796Z,50.875523
2023-04-07T04:57:52.810Z,50.875542
2023-04-07T04:58:52.795Z,50.875519
2023-04-07T04:59:52.774Z,50.875500
2023-04-07T05:00:52.798Z,50.875526
2023-04-07T05:01:53.971Z,50.875591
2023-04-07T05:02:52.951Z,50.875668
2023-04-07T05:03:53.200Z,50.875538
2023-04-07T05:04:52.822Z,50.875668
2023-04-07T05:05:52.721Z,50.875614
2023-04-07T05:06:52.679Z,50.875645
2023-04-07T05:07:52.697Z,50.875507
2023-04-07T05:08:52.697Z,50.875641
2023-04-07T05:09:52.677Z,50.875664
2023-04-07T05:10:52.660Z,50.875500
2023-04-07T05:11:52.643Z,50.875805
2023-04-07T05:12:52.658Z,50.875504
2023-04-07T05:13:52.879Z,50.875542
2023-04-07T05:14:52.615Z,50.875580
2023-04-07T05:15:52.682Z,50.875546
2023-04-07T05:16:52.597Z,50.875538
2023-04-07T05:17:52.608Z,50.875538
2023-04-07T05:18:52.568Z,50.875568
2023-04-07T05:19:52.586Z,50.875626
2023-04-07T05:20:52.538Z,50.875710
2023-04-07T05:21:52.565Z,50.875671
2023-04-07T05:22:52.572Z,50.875633
2023-04-07T05:23:52.852Z,50.875561
2023-04-07T05:24:52.507Z,50.875561
2023-04-07T05:25:52.480Z,50.875561
2023-04-07T05:26:52.508Z,50.875694
2023-04-07T05:27:52.502Z,50.875732
2023-04-07T05:28:52.474Z,50.875286
2023-04-07T05:29:52.456Z,50.875496
2023-04-07T05:30:52.452Z,50.875507
2023-04-07T05:31:52.488Z,50.875820
2023-04-07T05:32:53.489Z,50.875591
2023-04-07T05:33:52.853Z,50.875359
2023-04-07T05:34:52.421Z,50.875118
2023-04-07T05:35:52.426Z,50.874928
2023-04-07T05:36:52.390Z,50.874973
2023-04-07T05:37:52.373Z,50.875061
2023-04-07T05:38:53.346Z,50.875061
2023-04-07T05:39:52.350Z,50.875061
2023-04-07T05:40:52.391Z,50.875061
2023-04-07T05:41:52.361Z,50.875061
2023-04-07T05:42:52.355Z,50.879768
2023-04-07T05:43:52.562Z,50.877018
2023-04-07T05:44:52.280Z,50.875336
2023-04-07T05:45:52.331Z,50.875366
2023-04-07T05:46:52.286Z,50.875389
2023-04-07T05:47:52.357Z,50.875408
2023-04-07T05:48:52.273Z,50.875351
2023-04-07T05:49:52.257Z,50.875370
2023-04-07T05:50:52.242Z,50.875343
2023-04-07T05:51:53.243Z,50.875298
2023-04-07T05:52:52.237Z,50.875301
2023-04-07T05:53:52.544Z,50.875256
2023-04-07T05:54:52.219Z,50.875343
2023-04-07T05:55:52.194Z,50.875168
2023-04-07T05:56:52.187Z,50.875374
2023-04-07T05:57:52.197Z,50.875317
2023-04-07T05:58:52.176Z,50.875412
2023-04-07T05:59:52.148Z,50.875011
2023-04-07T06:00:52.145Z,50.875095
2023-04-07T06:01:52.229Z,50.874931
2023-04-07T06:02:52.269Z,50.875282
2023-04-07T06:03:52.404Z,50.875244
2023-04-07T06:04:52.137Z,50.875305
2023-04-07T06:05:52.119Z,50.875141
2023-04-07T06:06:52.094Z,50.875141
2023-04-07T06:07:52.107Z,50.875130
2023-04-07T06:08:52.072Z,50.875088
2023-04-07T06:09:52.048Z,50.875088
2023-04-07T06:10:52.066Z,50.875088
2023-04-07T06:11:52.040Z,50.875088
2023-04-07T06:12:52.057Z,50.875088
2023-04-07T06:13:52.006Z,50.875088
2023-04-07T06:14:52.026Z,50.875088
2023-04-07T06:15:51.982Z,50.875088
2023-04-07T06:16:52.080Z,50.875088
2023-04-07T06:17:52.032Z,50.875088
2023-04-07T06:18:51.977Z,50.875095
2023-04-07T06:19:51.946Z,50.875294
2023-04-07T06:20:51.944Z,50.875301
2023-04-07T06:21:51.934Z,50.875343
2023-04-07T06:22:51.935Z,50.875340
2023-04-07T06:23:52.117Z,50.875416
2023-04-07T06:24:51.902Z,50.875340
2023-04-07T06:25:51.911Z,50.875271
2023-04-07T06:26:51.876Z,50.875130
2023-04-07T06:27:51.890Z,50.875130
2023-04-07T06:28:51.857Z,50.875214
2023-04-07T06:29:51.878Z,50.875065
2023-04-07T06:30:51.872Z,50.875156
2023-04-07T06:31:51.834Z,50.875156
2023-04-07T06:32:51.853Z,50.875156
2023-04-07T06:33:51.815Z,50.875473
2023-04-07T06:34:51.813Z,50.875473
2023-04-07T06:35:51.821Z,50.875473
2023-04-07T06:36:51.823Z,50.875473
2023-04-07T06:37:51.774Z,50.875473
2023-04-07T06:38:51.749Z,50.875473
2023-04-07T06:39:51.736Z,50.875473
2023-04-07T06:40:51.737Z,50.875473
2023-04-07T06:41:51.723Z,50.875473
2023-04-07T06:42:51.725Z,50.875473
2023-04-07T06:43:51.714Z,50.875473
2023-04-07T06:44:51.718Z,50.875340
2023-04-07T06:45:51.724Z,50.875195
2023-04-07T06:46:51.684Z,50.874870
2023-04-07T06:47:51.731Z,50.874870
2023-04-07T06:48:51.686Z,50.875713
2023-04-07T06:49:51.651Z,50.875088
2023-04-07T06:50:51.809Z,50.875156
2023-04-07T06:51:51.613Z,50.875057
2023-04-07T06:52:51.703Z,50.875057
2023-04-07T06:53:51.722Z,50.875057
2023-04-07T06:54:51.619Z,50.875057
2023-04-07T06:55:51.579Z,50.875057
2023-04-07T06:56:53.484Z,50.875057
2023-04-07T06:57:51.580Z,50.875057
2023-04-07T06:58:52.292Z,50.875057
2023-04-07T06:59:51.546Z,50.875057
2023-04-07T07:00:51.528Z,50.875057
2023-04-07T07:01:51.620Z,50.875057
2023-04-07T07:02:51.689Z,50.875057
2023-04-07T07:03:52.215Z,50.875057
2023-04-07T07:04:52.767Z,50.875057
2023-04-07T07:05:51.516Z,50.875057
2023-04-07T07:06:51.517Z,50.875057
2023-04-07T07:07:51.474Z,50.875057
2023-04-07T07:08:51.474Z,50.875057
2023-04-07T07:09:51.437Z,50.875057
2023-04-07T07:10:51.445Z,50.875057
2023-04-07T07:11:51.414Z,50.875057
2023-04-07T07:12:51.438Z,50.875057
2023-04-07T07:13:51.414Z,50.875057
2023-04-07T07:14:51.397Z,50.875057
2023-04-07T07:15:51.452Z,50.875057
2023-04-07T07:16:51.380Z,50.875057
2023-04-07T07:17:51.472Z,50.875057
2023-04-07T07:18:52.802Z,50.875057
2023-04-07T07:19:51.336Z,50.875057
2023-04-07T07:20:51.332Z,50.875057
2023-04-07T07:21:51.345Z,50.875057
2023-04-07T07:22:51.348Z,50.875057
2023-04-07T07:23:51.300Z,50.875057
2023-04-07T07:24:51.293Z,50.875057
2023-04-07T07:25:51.295Z,50.875057
2023-04-07T07:26:51.260Z,50.875057
2023-04-07T07:27:51.252Z,50.875057
2023-04-07T07:28:51.303Z,50.875057
2023-04-07T07:29:51.240Z,50.875057
2023-04-07T07:30:51.260Z,50.875057
2023-04-07T07:31:51.210Z,50.875057
2023-04-07T07:32:51.323Z,50.875057
2023-04-07T07:33:51.232Z,50.875057
2023-04-07T07:34:51.305Z,50.875057
2023-04-07T07:35:51.181Z,50.875057
2023-04-07T07:36:51.181Z,50.875057
2023-04-07T07:37:51.163Z,50.875057
2023-04-07T07:38:51.160Z,50.875057
2023-04-07T07:39:51.196Z,50.875057
2023-04-07T07:40:51.165Z,50.875057
2023-04-07T07:41:51.166Z,50.875057
2023-04-07T07:42:51.103Z,50.875057
2023-04-07T07:43:51.153Z,50.875057
2023-04-07T07:44:51.112Z,50.875057
2023-04-07T07:45:51.090Z,50.875057
2023-04-07T07:46:51.315Z,50.875057
2023-04-07T07:47:51.190Z,50.875057
2023-04-07T07:48:51.074Z,50.875057
2023-04-07T07:49:51.073Z,50.875057
2023-04-07T07:50:51.029Z,50.875057
2023-04-07T07:51:51.026Z,50.875057
2023-04-07T07:52:51.015Z,50.875057
2023-04-07T07:53:51.029Z,50.875057
2023-04-07T07:54:51.018Z,50.875057
2023-04-07T07:55:50.996Z,50.875057
2023-04-07T07:56:50.995Z,50.875057
2023-04-07T07:57:50.969Z,50.875057
2023-04-07T07:58:50.974Z,50.874672
2023-04-07T07:59:50.937Z,50.874691
2023-04-07T08:00:50.968Z,50.875118
2023-04-07T08:01:51.052Z,50.875210
2023-04-07T08:02:50.998Z,50.875210
2023-04-07T08:03:51.390Z,50.875259
2023-04-07T08:04:50.934Z,50.875259
2023-04-07T08:05:50.908Z,50.875359
2023-04-07T08:06:50.871Z,50.875103
2023-04-07T08:07:52.813Z,50.875153
2023-04-07T08:08:50.863Z,50.875206
2023-04-07T08:09:50.843Z,50.875263
2023-04-07T08:10:50.862Z,50.875427
2023-04-07T08:11:50.835Z,50.875401
2023-04-07T08:12:50.832Z,50.875454
2023-04-07T08:13:50.826Z,50.875454
2023-04-07T08:14:50.785Z,50.875427
2023-04-07T08:15:50.834Z,50.875393
2023-04-07T08:16:50.771Z,50.875389
2023-04-07T08:17:50.810Z,50.875423
2023-04-07T08:18:50.775Z,50.875332
2023-04-07T08:19:50.745Z,50.875385
2023-04-07T08:20:50.725Z,50.875435
2023-04-07T08:21:50.720Z,50.875332
2023-04-07T08:22:50.718Z,50.875446
2023-04-07T08:23:50.976Z,50.875416
2023-04-07T08:24:50.788Z,50.875416
2023-04-07T08:25:50.690Z,50.875401
2023-04-07T08:26:50.673Z,50.875443
2023-04-07T08:27:50.659Z,50.875404
2023-04-07T08:28:50.663Z,50.875412
2023-04-07T08:29:50.642Z,50.875450
2023-04-07T08:30:50.643Z,50.875416
2023-04-07T08:31:50.665Z,50.875401
2023-04-07T08:32:50.763Z,50.875450
2023-04-07T08:33:50.735Z,50.875385
2023-04-07T08:34:50.588Z,50.875484
2023-04-07T08:35:50.608Z,50.875439
2023-04-07T08:36:50.563Z,50.875393
2023-04-07T08:37:50.575Z,50.875324
2023-04-07T08:38:50.610Z,50.875332
2023-04-07T08:39:50.540Z,50.875301
2023-04-07T08:40:50.528Z,50.875343
2023-04-07T08:41:50.523Z,50.875362
2023-04-07T08:42:50.512Z,50.875427
2023-04-07T08:43:50.610Z,50.875393
2023-04-07T08:44:50.513Z,50.875404
2023-04-07T08:45:51.768Z,50.875397
2023-04-07T08:46:50.522Z,50.875362
2023-04-07T08:47:50.529Z,50.875336
2023-04-07T08:48:50.482Z,50.875397
2023-04-07T08:49:50.477Z,50.875404
2023-04-07T08:50:50.444Z,50.875389
2023-04-07T08:51:50.470Z,50.875401
2023-04-07T08:52:50.414Z,50.875408
2023-04-07T08:53:50.468Z,50.875427
2023-04-07T08:54:50.383Z,50.875431
2023-04-07T08:55:50.453Z,50.875324
2023-04-07T08:56:50.394Z,50.875347
2023-04-07T08:57:51.343Z,50.875370
2023-04-07T08:58:50.364Z,50.875343
2023-04-07T08:59:50.349Z,50.875324
2023-04-07T09:00:50.334Z,50.875278
2023-04-07T09:01:51.390Z,50.875324
2023-04-07T09:02:50.370Z,50.875340
2023-04-07T09:03:50.426Z,50.875294
2023-04-07T09:04:50.275Z,50.875343
2023-04-07T09:05:50.312Z,50.875366
2023-04-07T09:06:50.281Z,50.875366
2023-04-07T09:07:50.254Z,50.875366
2023-04-07T09:08:50.312Z,50.875366
2023-04-07T09:09:50.215Z,50.875393
2023-04-07T09:10:50.259Z,50.875393
2023-04-07T09:11:50.212Z,50.875393
2023-04-07T09:12:50.175Z,50.875374
2023-04-07T09:13:50.179Z,50.875378
2023-04-07T09:14:50.157Z,50.875385
2023-04-07T09:15:50.134Z,50.875439
2023-04-07T09:16:50.165Z,50.875301
2023-04-07T09:17:50.135Z,50.875278
2023-04-07T09:18:50.128Z,50.875423
2023-04-07T09:19:50.088Z,50.875435
2023-04-07T09:20:50.076Z,50.875538
2023-04-07T09:21:50.162Z,50.875324
2023-04-07T09:22:50.533Z,50.875412
2023-04-07T19:38:15.184Z,50.876038
2023-04-07T19:39:15.172Z,50.875858
2023-04-07T19:40:15.177Z,50.876163
2023-04-07T19:41:15.169Z,50.876175
2023-04-07T19:42:15.138Z,50.876175
2023-04-07T19:43:15.126Z,50.876175
2023-04-07T19:44:15.114Z,50.876175
2023-04-07T19:45:15.136Z,50.876175
2023-04-07T19:46:15.171Z,50.876175
2023-04-07T19:47:15.087Z,50.876175
2023-04-07T19:48:15.086Z,50.876175
2023-04-07T19:49:15.074Z,50.876175
2023-04-07T19:50:15.070Z,50.876175
2023-04-07T19:51:15.056Z,50.876175
2023-04-07T19:52:15.044Z,50.876175
2023-04-07T19:53:15.036Z,50.876175
2023-04-07T19:54:15.035Z,50.876175
2023-04-07T19:55:15.040Z,50.876175
2023-04-07T19:56:15.005Z,50.876175
2023-04-07T19:57:14.989Z,50.876175
2023-04-07T19:58:15.001Z,50.876175
2023-04-07T19:59:14.983Z,50.876175
2023-04-07T20:00:14.967Z,50.876175
2023-04-07T20:01:14.994Z,50.876175
2023-04-07T20:02:14.988Z,50.876175
2023-04-07T20:03:15.108Z,50.876175
2023-04-07T20:04:14.971Z,50.876175
2023-04-07T20:05:14.933Z,50.876175
2023-04-07T20:06:14.932Z,50.876175
2023-04-07T20:07:14.892Z,50.876175
2023-04-07T20:08:14.900Z,50.876175
2023-04-07T20:09:14.886Z,50.876175
2023-04-07T20:10:14.884Z,50.876175
2023-04-07T20:11:14.913Z,50.876175
2023-04-07T20:12:14.859Z,50.876175
2023-04-07T20:13:14.836Z,50.876175
2023-04-07T20:14:14.826Z,50.876175
2023-04-07T20:15:14.846Z,50.876175
2023-04-07T20:16:14.861Z,50.876175
2023-04-07T20:17:14.808Z,50.876175
2023-04-07T20:18:14.799Z,50.876175
2023-04-07T20:19:14.788Z,50.876175
2023-04-07T20:20:14.791Z,50.876175
2023-04-07T20:21:16.194Z,50.876175
2023-04-07T20:22:14.754Z,50.876175
2023-04-07T20:23:14.729Z,50.876175
2023-04-07T20:24:15.737Z,50.876175
2023-04-07T20:25:14.757Z,50.876175
2023-04-07T20:26:14.710Z,50.876175
2023-04-07T20:27:14.712Z,50.876175
2023-04-07T20:28:14.706Z,50.876175
2023-04-07T20:29:14.685Z,50.876175
2023-04-07T20:30:14.694Z,50.876175
2023-04-07T20:31:14.751Z,50.876175
2023-04-07T20:32:14.661Z,50.876175
2023-04-07T20:33:14.654Z,50.876175
2023-04-07T20:34:14.646Z,50.876175
2023-04-07T20:35:14.653Z,50.876175
2023-04-07T20:36:14.640Z,50.876175
2023-04-07T20:37:14.602Z,50.876175
2023-04-07T20:38:14.614Z,50.876175
2023-04-07T20:39:14.603Z,50.876175
2023-04-07T20:40:14.594Z,50.876175
2023-04-07T20:41:14.570Z,50.876175
2023-04-07T20:42:14.563Z,50.876175
2023-04-07T20:43:14.560Z,50.876175
2023-04-07T20:44:14.535Z,50.876175
2023-04-07T20:45:14.618Z,50.876175
2023-04-07T20:46:14.558Z,50.876175
2023-04-07T20:47:14.519Z,50.876175
2023-04-07T20:48:14.502Z,50.876175
2023-04-07T20:49:14.487Z,50.876175
2023-04-07T20:50:14.532Z,50.876175
2023-04-07T20:51:14.479Z,50.876175
2023-04-07T20:52:14.454Z,50.875343
2023-04-07T20:53:14.463Z,50.875328
2023-04-07T20:54:14.433Z,50.875309
2023-04-07T20:55:14.451Z,50.875462
2023-04-07T20:56:14.433Z,50.875401
2023-04-07T20:57:14.431Z,50.875259
2023-04-07T20:58:14.417Z,50.875343
2023-04-07T20:59:14.409Z,50.875137
2023-04-07T21:00:14.430Z,50.875576
2023-04-07T21:01:14.471Z,50.875385
2023-04-07T21:02:14.467Z,50.875618
2023-04-07T21:03:14.581Z,50.875534
2023-04-07T21:04:14.506Z,50.875469
2023-04-07T21:05:14.375Z,50.875366
2023-04-07T21:06:14.338Z,50.875233
2023-04-07T21:07:14.345Z,50.875526
2023-04-07T21:08:14.782Z,50.875656
2023-04-07T21:09:14.309Z,50.875618
2023-04-07T21:10:14.317Z,50.875385
2023-04-07T21:11:14.301Z,50.875237
2023-04-07T21:12:14.306Z,50.875366
2023-04-07T21:13:14.259Z,50.875366
2023-04-07T21:14:14.269Z,50.875389
2023-04-07T21:15:14.264Z,50.875488
2023-04-07T21:16:14.342Z,50.875423
2023-04-07T21:17:14.230Z,50.875389
2023-04-07T21:18:14.252Z,50.875370
2023-04-07T21:19:14.213Z,50.875473
2023-04-07T21:20:14.239Z,50.875572
2023-04-07T21:21:14.205Z,50.875359
2023-04-07T21:22:14.182Z,50.875248
2023-04-07T21:23:14.169Z,50.875481
2023-04-07T21:24:14.162Z,50.875603
2023-04-07T21:25:14.197Z,50.875439
2023-04-07T21:26:14.153Z,50.875427
2023-04-07T21:27:14.155Z,50.875351
2023-04-07T21:28:14.128Z,50.875408
2023-04-07T21:29:14.128Z,50.875362
2023-04-07T21:30:14.146Z,50.875549
2023-04-07T21:31:14.112Z,50.875500
2023-04-07T21:32:14.102Z,50.875553
2023-04-07T21:33:14.097Z,50.875332
2023-04-07T21:34:14.084Z,50.875458
2023-04-07T21:35:14.047Z,50.875580
2023-04-07T21:36:14.078Z,50.875034
2023-04-07T21:37:14.024Z,50.873741
2023-04-07T21:38:14.020Z,50.873020
2023-04-07T21:39:14.006Z,50.872234
2023-04-07T21:40:14.007Z,50.872940
2023-04-07T21:41:14.000Z,50.871994
2023-04-07T21:42:14.003Z,50.869198
2023-04-07T21:43:13.974Z,50.868195
2023-04-07T21:44:13.961Z,50.867092
2023-04-07T21:45:13.948Z,50.866348
2023-04-07T21:46:13.983Z,50.866253
2023-04-07T21:47:13.923Z,50.866253
2023-04-07T21:48:13.959Z,50.866253
2023-04-07T21:49:13.937Z,50.866253
2023-04-07T21:50:13.938Z,50.861233
2023-04-07T21:51:13.909Z,50.861233
2023-04-07T21:52:13.893Z,50.861233
2023-04-07T21:53:13.869Z,50.896656
2023-04-07T21:54:13.878Z,50.902538
2023-04-07T21:55:13.860Z,50.902538
2023-04-07T21:56:13.864Z,50.902538
2023-04-07T21:57:13.862Z,50.873589
2023-04-07T21:58:13.825Z,50.873463
2023-04-07T21:59:13.830Z,50.873463
2023-04-07T22:00:13.801Z,50.874718
2023-04-07T22:01:13.867Z,50.874889
2023-04-07T22:02:13.849Z,50.875072
2023-04-07T22:03:13.906Z,50.875072
2023-04-07T22:04:13.845Z,50.875072
2023-04-07T22:05:13.748Z,50.875511
2023-04-07T22:06:13.745Z,50.875290
2023-04-07T22:07:13.744Z,50.875061
2023-04-07T22:08:13.738Z,50.875092
2023-04-07T22:09:13.724Z,50.875381
2023-04-07T22:10:13.708Z,50.875931
2023-04-07T22:11:13.705Z,50.876579
2023-04-07T22:12:13.700Z,50.876595
2023-04-07T22:13:13.684Z,50.877323
2023-04-07T22:14:13.661Z,50.878876
2023-04-07T22:15:13.639Z,50.880260
2023-04-07T22:16:13.710Z,50.882175
2023-04-07T22:17:13.637Z,50.884785
2023-04-07T22:18:13.779Z,50.886925
2023-04-07T22:19:13.621Z,50.886925
2023-04-07T22:20:13.594Z,50.886925
2023-04-07T22:21:13.597Z,50.904331
2023-04-07T22:22:13.589Z,50.904331
2023-04-07T22:23:13.571Z,50.916149
2023-04-07T22:24:13.560Z,50.916149
2023-04-07T22:25:13.560Z,50.916149
2023-04-07T22:26:13.565Z,50.916149
2023-04-07T22:27:13.545Z,50.916149
2023-04-07T22:28:13.549Z,50.916149
2023-04-07T22:29:13.522Z,50.916149
2023-04-07T22:30:13.511Z,50.916149
2023-04-07T22:31:13.551Z,50.916149
2023-04-07T22:32:13.516Z,50.916149
2023-04-07T22:33:13.492Z,50.916149
2023-04-07T22:34:13.491Z,50.916149
2023-04-07T22:35:13.457Z,50.916149
2023-04-07T22:36:13.464Z,50.916149
2023-04-07T22:37:13.430Z,50.916149
2023-04-07T22:38:13.441Z,50.916149
2023-04-07T22:39:13.429Z,50.916149
2023-04-07T22:40:13.430Z,50.916149
2023-04-07T22:41:13.427Z,50.916149
2023-04-07T22:42:13.385Z,50.916149
2023-04-07T22:43:14.239Z,50.916149
2023-04-07T22:44:13.357Z,50.916149
2023-04-07T22:45:13.369Z,50.916149
2023-04-07T22:46:13.411Z,50.916149
2023-04-07T22:47:13.335Z,50.916149
2023-04-07T22:48:13.344Z,50.916149
2023-04-07T22:49:13.324Z,50.916149
2023-04-07T22:50:13.311Z,50.916149
2023-04-07T22:51:13.317Z,50.916149
2023-04-07T22:52:13.270Z,50.916149
2023-04-07T22:53:13.302Z,50.916149
2023-04-07T22:54:13.268Z,50.916149
2023-04-07T22:55:13.263Z,50.916149
2023-04-07T22:56:13.257Z,50.916149
2023-04-07T22:57:13.254Z,50.916149
2023-04-07T22:58:13.238Z,50.916149
2023-04-07T22:59:13.224Z,50.916149
2023-04-07T23:00:13.215Z,50.916149
2023-04-07T23:01:13.241Z,50.916149
